Weather observations for the past three days for
De Kalb Taylor Municipal Airport
| Date | Time (cdt) | Wind (mph) | Vis. (mi.) | Weather | Sky Cond. | Temperature (ºF) | Relative Humidity | Wind Chill (°F) | Heat Index (°F) | Pressure | Precipitation (in) | ||||||
|---|---|---|---|---|---|---|---|---|---|---|---|---|---|---|---|---|---|
| Air | Dwpt | 6 hour | altimeter (in) | sea level (mb) | 1 hr | 3 hr | 6 hr | ||||||||||
| Max. | Min. | ||||||||||||||||
| 01 | 12:55 | W 9 | 10.00 | Fair | CLR | 90.5 | 77 | 90.7 | 76.1 | 65% | 104 | 29.99 | 0.0 | ||||
| 01 | 12:35 | W 9 | 10.00 | Fair | CLR | 90.1 | 77.7 | 67% | 104 | 30 | 0.0 | ||||||
| 01 | 12:15 | SW 8 | 10.00 | Fair | CLR | 90.1 | 78.4 | 69% | 105 | 30 | 0.0 | ||||||
| 01 | 11:55 | SW 10 | 10.00 | Thunderstorm in Vicinity | CLR | 89.4 | 79 | 71% | 105 | 30 | 0.0 | ||||||
| 01 | 11:35 | W 7 | 10.00 | Fair | CLR | 88.5 | 78.4 | 72% | 103 | 30 | 0.0 | ||||||
| 01 | 11:15 | SW 8 | 10.00 | Fair | CLR | 88 | 77.7 | 72% | 101 | 30.01 | 0.0 | ||||||
| 01 | 10:55 | W 9 | 10.00 | Fair | CLR | 87.1 | 78.3 | 75% | 100 | 30 | 0.0 | ||||||
| 01 | 10:35 | SW 8 | 10.00 | Fair | CLR | 86.2 | 78.3 | 77% | 99 | 30 | 0.0 | ||||||
| 01 | 10:15 | SW 7 | 10.00 | Fair | CLR | 84.6 | 77.5 | 80% | 95 | 30 | 0.0 | ||||||
| 01 | 09:55 | SW 8 | 10.00 | Fair | CLR | 82.9 | 76.5 | 81% | 91 | 30 | 0.0 | ||||||
| 01 | 09:35 | SW 6 | 10.00 | Fair | CLR | 81.7 | 75.4 | 81% | 88 | 30 | 0.0 | ||||||
| 01 | 09:15 | SW 9 | 10.00 | Fair | CLR | 81 | 75.2 | 83% | 87 | 30 | 0.0 | ||||||
| 01 | 08:55 | SW 8 | 10.00 | Fair | CLR | 81.1 | 74.8 | 81% | 87 | 30 | 0.0 | ||||||
| 01 | 08:35 | SW 7 | 10.00 | Fair | CLR | 80.4 | 74.1 | 81% | 85 | 30 | 0.0 | ||||||
| 01 | 08:15 | SW 7 | 10.00 | Fair | CLR | 79 | 73.2 | 83% | 82 | 30 | 0.0 | ||||||
| 01 | 07:55 | SW 6 | 10.00 | Fair | CLR | 77 | 73.2 | 88% | 78 | 30.01 | 0.0 | ||||||
| 01 | 07:35 | SW 6 | 10.00 | Fair | CLR | 76.5 | 72.7 | 88% | 77 | 30 | 0.0 | ||||||
| 01 | 07:15 | SW 6 | 10.00 | Fair | CLR | 76.3 | 72.7 | 89% | 77 | 30 | 0.0 | ||||||
| 01 | 06:55 | W 8 | 10.00 | Fair | CLR | 76.1 | 72.7 | 76.6 | 75 | 89% | 76 | 29.99 | 0.0 | ||||
| 01 | 06:35 | W 6 | 10.00 | Fair | CLR | 75.2 | 72.5 | 91% | 74 | 29.99 | 0.0 | ||||||
| 01 | 06:15 | SW 7 | 10.00 | Fair | CLR | 75.4 | 72.5 | 91% | 75 | 29.98 | 0.0 | ||||||
| 01 | 05:55 | W 7 | 10.00 | Fair | CLR | 75.4 | 72.7 | 91% | 75 | 29.98 | 0.0 | ||||||
| 01 | 05:35 | W 6 | 10.00 | Fair | CLR | 75.4 | 72.7 | 91% | 75 | 29.97 | 0.0 | ||||||
| 01 | 05:15 | SW 6 | 10.00 | Fair | CLR | 75.2 | 72.7 | 92% | 74 | 29.97 | 0.0 | ||||||
| 01 | 04:55 | SW 6 | 10.00 | Fair | CLR | 75.6 | 72.5 | 90% | 75 | 29.97 | 0.0 | ||||||
| 01 | 04:35 | SW 7 | 10.00 | Fair | CLR | 76.5 | 72.7 | 88% | 77 | 29.97 | 0.0 | ||||||
| 01 | 04:15 | W 6 | 10.00 | Fair | CLR | 76.1 | 72.9 | 90% | 76 | 29.97 | 0.0 | ||||||
| 01 | 03:55 | SW 8 | 10.00 | Fair | CLR | 76.5 | 72.7 | 88% | 77 | 29.97 | 0.0 | ||||||
| 01 | 03:35 | W 7 | 10.00 | Fair | CLR | 76.1 | 72.9 | 90% | 76 | 29.96 | 0.0 | ||||||
| 01 | 03:15 | SW 8 | 10.00 | Fair | CLR | 76.1 | 72.9 | 90% | 76 | 29.96 | 0.0 | ||||||
| 01 | 02:55 | SW 7 | 10.00 | Fair | CLR | 76.3 | 73 | 90% | 77 | 29.96 | 0.0 | ||||||
| 01 | 02:35 | SW 6 | 10.00 | Fair | CLR | 75.9 | 73.4 | 92% | 76 | 29.97 | 0.0 | ||||||
| 01 | 02:15 | SW 5 | 10.00 | Fair | CLR | 75.4 | 73.8 | 95% | 74 | 29.96 | 0.0 | ||||||
| 01 | 01:55 | SW 5 | 10.00 | Fair | CLR | 75.4 | 74.3 | 96% | 74 | 29.96 | 0.0 | ||||||
| 01 | 01:35 | SW 5 | 10.00 | Fair | CLR | 75.4 | 74.3 | 96% | 74 | 29.96 | 0.0 | ||||||
| 01 | 01:15 | SW 5 | 10.00 | Fair | CLR | 75.6 | 74.5 | 96% | 74 | 29.96 | 0.0 | ||||||
| 01 | 00:55 | SW 6 | 10.00 | Fair | CLR | 75.2 | 74.7 | 81.3 | 73.8 | 98% | 73 | 29.96 | 0.0 | ||||
| 01 | 00:35 | SW 6 | 10.00 | Fair | CLR | 74.3 | 74.3 | 100% | 29.96 | 0.0 | |||||||
| 01 | 00:15 | SW 6 | 10.00 | Fair | CLR | 74.5 | 74.3 | 99% | 29.96 | 0.0 | |||||||
| 31 | 23:55 | SW 7 | 10.00 | Fair | CLR | 75 | 74.5 | 98% | 73 | 29.96 | 0.0 | ||||||
| 31 | 23:35 | SW 7 | 10.00 | Fair | CLR | 74.7 | 74.3 | 99% | 29.96 | 0.0 | |||||||
| 31 | 23:15 | SW 7 | 10.00 | Fair | CLR | 74.3 | 74.3 | 100% | 29.97 | 0.0 | |||||||
| 31 | 22:55 | SW 5 | 10.00 | Fair | CLR | 73.9 | 73.9 | 100% | 29.97 | 0.0 | |||||||
| 31 | 22:35 | S 7 | 10.00 | Fair | CLR | 74.5 | 74.3 | 99% | 29.97 | 0.0 | |||||||
| 31 | 22:15 | SW 3 | 10.00 | Fair | CLR | 74.7 | 74.7 | 100% | 29.97 | 0.0 | |||||||
| 31 | 21:55 | S 7 | 10.00 | Fair | CLR | 75 | 75 | 100% | 72 | 29.97 | 0.0 | ||||||
| 31 | 21:35 | S 8 | 10.00 | Fair | CLR | 75.6 | 75.6 | 100% | 74 | 29.97 | 0.0 | ||||||
| 31 | 21:15 | S 5 | 10.00 | Fair | CLR | 76.3 | 76.1 | 99% | 76 | 29.98 | 0.0 | ||||||
| 31 | 20:55 | Calm | 10.00 | Fair | CLR | 76.3 | 75.2 | 96% | 76 | 29.98 | 0.0 | ||||||
| 31 | 20:35 | Calm | 10.00 | Fair | CLR | 76.3 | 75 | 96% | 76 | 29.97 | 0.0 | ||||||
| 31 | 20:15 | S 5 | 10.00 | Fair | CLR | 77.4 | 74.7 | 91% | 79 | 29.96 | 0.0 | ||||||
| 31 | 19:55 | S 7 | 10.00 | Fair | CLR | 77.4 | 74.3 | 90% | 79 | 29.94 | 0.0 | ||||||
| 31 | 19:35 | S 7 | 10.00 | Thunderstorm in Vicinity | CLR | 78.3 | 74.3 | 88% | 81 | 29.94 | 0.0 | ||||||
| 31 | 19:15 | SW 5 | 10.00 | Thunderstorm in Vicinity | CLR | 81.3 | 74.3 | 79% | 87 | 29.96 | 0.0 | ||||||
| 31 | 18:35 | SW 6 | 10.00 | Fair | CLR | 81.7 | 75.2 | 81% | 88 | 29.94 | 0.0 | ||||||
| 31 | 18:15 | S 5 | 10.00 | Partly Cloudy | SCT050 SCT070 SCT095 | 82.8 | 75.6 | 79% | 90 | 29.93 | 0.0 | ||||||
| 31 | 17:55 | SW 7 | 10.00 | Light Rain | SCT050 SCT070 SCT095 | 82 | 74.1 | 77% | 88 | 29.95 | 0.0 | ||||||
| 31 | 17:35 | SW 6 | 10.00 | Partly Cloudy | SCT120 | 82.4 | 75 | 78% | 89 | 29.95 | 0.0 | ||||||
| 31 | 17:15 | SW 8 | 10.00 | Mostly Cloudy | SCT035 SCT050 BKN120 | 84.4 | 74.8 | 73% | 92 | 29.94 | 0.0 | ||||||
| 31 | 16:55 | SW 7 | 10.00 | Mostly Cloudy | BKN120 | 83.1 | 73.8 | 73% | 90 | 29.95 | 0.0 | ||||||
| 31 | 16:35 | SW 8 | 10.00 | Mostly Cloudy | BKN110 | 83.7 | 74.5 | 74% | 91 | 29.94 | 0.0 | ||||||
| 31 | 16:15 | S 9 | 10.00 | Partly Cloudy | SCT120 | 84.9 | 73.9 | 70% | 92 | 29.93 | 0.0 | ||||||
| 31 | 15:55 | SW 10 | 10.00 | Mostly Cloudy | BKN120 | 84 | 72.5 | 68% | 90 | 29.93 | 0.0 | ||||||
| 31 | 15:35 | SW 9 | 10.00 | Partly Cloudy | SCT120 | 85.1 | 72.3 | 66% | 91 | 29.93 | 0.0 | ||||||
| 31 | 15:15 | SW 7 | 10.00 | Partly Cloudy | SCT110 | 86.7 | 74.5 | 67% | 95 | 29.94 | 0.0 | ||||||
| 31 | 14:55 | SW 9 | 10.00 | Mostly Cloudy | BKN110 | 84.2 | 71.2 | 65% | 89 | 29.96 | 0.0 | ||||||
| 31 | 14:35 | W 9 | 10.00 | Thunderstorm in Vicinity | SCT110 | 85.3 | 72.3 | 65% | 92 | 29.96 | 0.0 | ||||||
| 31 | 14:15 | SW 8 | 10.00 | Partly Cloudy | SCT110 | 85.5 | 73.6 | 68% | 93 | 29.95 | 0.0 | ||||||
| 31 | 13:55 | SW 9 | 10.00 | Thunderstorm in Vicinity | SCT110 | 84 | 72.9 | 69% | 90 | 29.95 | 0.0 | ||||||
| 31 | 13:35 | SW 10 | 10.00 | Thunderstorm in Vicinity | SCT042 SCT065 BKN110 | 85.1 | 72.9 | 67% | 92 | 29.95 | 0.0 | ||||||
| 31 | 13:15 | SW 14 | 10.00 | Thunderstorm | SCT110 | 86 | 72.3 | 64% | 93 | 29.96 | 0.0 | ||||||
| 31 | 12:55 | SW 9 | 10.00 | Partly Cloudy | SCT120 | 85.5 | 72.1 | 85.5 | 68.9 | 65% | 92 | 29.96 | 0.0 | ||||
| 31 | 12:35 | S 12 G 20 | 10.00 | Partly Cloudy | SCT120 | 83.3 | 70.5 | 65% | 88 | 29.96 | 0.0 | ||||||
| 31 | 12:15 | S 13 | 10.00 | Fair | CLR | 84.7 | 71.8 | 65% | 90 | 29.97 | 0.0 | ||||||
| 31 | 11:55 | S 15 G 20 | 10.00 | Fair | CLR | 83.8 | 71.4 | 66% | 89 | 29.97 | 0.0 | ||||||
| 31 | 11:35 | S 14 | 10.00 | Fair | CLR | 82.9 | 71.6 | 69% | 88 | 29.97 | 0.0 | ||||||
| 31 | 11:15 | S 8 | 10.00 | Fair | CLR | 79.2 | 70.3 | 74% | 82 | 29.98 | 0.0 | ||||||
| 31 | 10:55 | S 14 | 10.00 | Fair | CLR | 79.9 | 70 | 72% | 83 | 29.97 | 0.0 | ||||||
| 31 | 10:35 | S 14 | 10.00 | Fair | CLR | 79 | 69.6 | 73% | 82 | 29.97 | 0.0 | ||||||
| 31 | 10:15 | S 12 | 10.00 | Partly Cloudy | SCT100 | 76.5 | 68.7 | 77% | 78 | 29.98 | 0.0 | ||||||
| 31 | 09:55 | S 13 | 10.00 | Mostly Cloudy | BKN100 | 75.9 | 68.2 | 77% | 77 | 29.97 | 0.0 | ||||||
| 31 | 09:35 | S 12 | 10.00 | Mostly Cloudy | BKN100 | 74.3 | 68.5 | 82% | 29.97 | 0.0 | |||||||
| 31 | 09:15 | S 10 | 10.00 | Overcast | OVC100 | 71.8 | 67.3 | 86% | 29.97 | 0.0 | |||||||
| 31 | 08:55 | S 9 | 10.00 | Mostly Cloudy | BKN100 BKN120 | 72 | 67.1 | 85% | 29.97 | 0.0 | |||||||
| 31 | 08:35 | S 9 | 10.00 | Overcast | OVC100 | 70.7 | 66.4 | 86% | 29.97 | 0.0 | |||||||
| 31 | 08:15 | S 9 | 10.00 | Overcast | OVC100 | 70 | 66.6 | 89% | 29.97 | 0.0 | |||||||
| 31 | 07:55 | S 9 | 10.00 | Overcast | OVC090 | 69.3 | 66.2 | 90% | 29.97 | 0.0 | |||||||
| 31 | 07:35 | S 8 | 10.00 | Overcast | BKN090 OVC120 | 68.9 | 66 | 91% | 29.97 | 0.0 | |||||||
| 31 | 07:15 | S 10 | 10.00 | Thunderstorm in Vicinity | BKN090 OVC120 | 68.9 | 65.8 | 90% | 29.96 | 0.0 | |||||||
| 31 | 06:55 | S 10 | 10.00 | Thunderstorm in Vicinity | OVC090 | 68.7 | 66.2 | 72.3 | 68.5 | 92% | 29.96 | 0.0 | 0.01 | 0.01 | |||
| 31 | 06:35 | S 12 | 10.00 | Overcast | OVC090 | 68.5 | 66.2 | 92% | 29.95 | 0.0 | 0.01 | ||||||
| 31 | 06:15 | S 9 | 10.00 | Thunderstorm | BKN090 OVC110 | 69.8 | 65.1 | 85% | 29.95 | 0.0 | |||||||
| 31 | 05:55 | S 8 | 10.00 | Mostly Cloudy | SCT090 BKN110 | 69.1 | 65.3 | 88% | 29.95 | 0.0 | |||||||
| 31 | 05:35 | S 10 | 10.00 | Mostly Cloudy | BKN090 | 69.8 | 65.3 | 86% | 29.95 | 0.0 | |||||||
| 31 | 05:15 | S 9 | 10.00 | Thunderstorm in Vicinity | SCT100 | 69.4 | 65.3 | 87% | 29.96 | 0.0 | |||||||
| 31 | 04:55 | S 8 | 10.00 | Thunderstorm in Vicinity | CLR | 68.9 | 65.3 | 88% | 29.96 | 0.0 | |||||||
| 31 | 04:35 | S 8 | 10.00 | Fair | CLR | 69.3 | 65.3 | 87% | 29.96 | 0.0 | |||||||
| 31 | 04:15 | S 8 | 10.00 | Fair | CLR | 69.1 | 65.3 | 88% | 29.96 | 0.0 | |||||||
| 31 | 03:55 | S 9 | 10.00 | Fair | CLR | 69.3 | 65.3 | 87% | 29.96 | 0.0 | |||||||
| 31 | 03:35 | S 9 | 10.00 | Fair | CLR | 70 | 65.3 | 85% | 29.96 | 0.0 | |||||||
| 31 | 03:15 | S 9 | 10.00 | Fair | CLR | 71.1 | 65.3 | 82% | 29.96 | 0.0 | |||||||
| 31 | 02:55 | S 10 | 10.00 | Fair | CLR | 71.1 | 65.3 | 82% | 29.96 | 0.0 | |||||||
| 31 | 02:35 | S 9 | 10.00 | Fair | CLR | 70.7 | 65.7 | 84% | 29.96 | 0.0 | |||||||
| 31 | 02:15 | SW 9 | 10.00 | Fair | CLR | 71.6 | 66 | 83% | 29.97 | 0.0 | |||||||
| 31 | 01:55 | SW 9 | 10.00 | Fair | CLR | 71.4 | 66.4 | 84% | 29.98 | 0.0 | |||||||
| 31 | 01:35 | S 8 | 10.00 | Fair | CLR | 71.8 | 67.1 | 85% | 29.97 | 0.0 | |||||||
| 31 | 01:15 | S 10 | 10.00 | Fair | CLR | 72 | 68 | 87% | 29.97 | 0.0 | |||||||
| 31 | 00:55 | S 12 | 10.00 | Fair | CLR | 72.5 | 68.9 | 72.9 | 71.2 | 89% | 29.97 | 0.0 | 0.02 | ||||
| 31 | 00:35 | S 10 | 10.00 | Fair | CLR | 71.8 | 69.8 | 94% | 29.98 | 0.0 | |||||||
| 31 | 00:15 | S 10 | 10.00 | Fair | CLR | 72 | 70 | 94% | 29.98 | 0.0 | |||||||
| 30 | 23:55 | S 8 | 10.00 | Fair | CLR | 72.5 | 70.2 | 92% | 29.98 | 0.0 | |||||||
| 30 | 23:35 | S 10 | 10.00 | Fair | CLR | 72.5 | 70.3 | 93% | 29.98 | 0.0 | |||||||
| 30 | 23:15 | S 9 | 10.00 | Fair | CLR | 72.1 | 71.2 | 97% | 29.99 | 0.0 | |||||||
| 30 | 22:55 | S 10 | 10.00 | Fair | CLR | 72.5 | 71.6 | 97% | 29.99 | 0.0 | |||||||
| 30 | 22:35 | S 12 | 10.00 | Fair | CLR | 72.7 | 71.6 | 96% | 29.99 | 0.0 | |||||||
| 30 | 22:15 | S 10 | 10.00 | Fair | CLR | 72.5 | 71.8 | 98% | 30 | 0.0 | |||||||
| 30 | 21:55 | E 3 | 10.00 | Fair | CLR | 71.2 | 71.2 | 100% | 30.01 | 0.0 | 0.02 | ||||||
| 30 | 21:35 | S 7 | 10.00 | Partly Cloudy | SCT110 | 71.6 | 71.6 | 100% | 30.01 | 0.0 | |||||||
| 30 | 21:15 | S 6 | 10.00 | Light Rain | SCT050 SCT070 SCT095 | 71.6 | 71.6 | 100% | 30.02 | 0.0 | |||||||
| 30 | 20:55 | S 5 | 7.00 | Light Drizzle | SCT100 SCT120 | 71.6 | 71.6 | 100% | 30.01 | 0.0 | 0.01 | ||||||
| 30 | 20:35 | S 6 | 7.00 | Light Drizzle | SCT060 SCT095 SCT110 | 71.6 | 71.6 | 100% | 30 | 0.0 | 0.01 | ||||||
| 30 | 20:15 | S 7 | 7.00 | Light Rain | SCT095 BKN110 | 71.6 | 71.6 | 100% | 30 | 0.0 | 0.01 | ||||||
| 30 | 19:55 | S 6 | 10.00 | Light Rain | SCT110 | 72 | 72 | 100% | 30.01 | 0.0 | 0.01 | ||||||
| 30 | 19:35 | S 6 | 10.00 | Light Rain | SCT110 | 71.8 | 71.8 | 100% | 30.01 | 0.0 | |||||||
| 30 | 19:15 | S 7 | 10.00 | Fair | CLR | 72.5 | 71.6 | 97% | 30 | 0.0 | |||||||
| 30 | 18:55 | S 9 | 10.00 | Mostly Cloudy | BKN110 | 72.5 | 71.6 | 77 | 72.1 | 97% | 30 | 0.0 | 0.03 | ||||
| 30 | 18:35 | S 10 | 10.00 | Mostly Cloudy | BKN110 | 72.5 | 71.8 | 98% | 29.99 | 0.0 | |||||||
| 30 | 18:15 | S 10 | 10.00 | Partly Cloudy | SCT110 | 72.7 | 71.8 | 97% | 30.01 | 0.0 | |||||||
| 30 | 17:55 | S 10 | 10.00 | Mostly Cloudy | BKN110 | 72.5 | 71.6 | 97% | 30 | 0.0 | 0.01 | ||||||
| 30 | 17:35 | S 12 | 10.00 | Mostly Cloudy | SCT085 BKN110 | 72.5 | 71.6 | 97% | 29.99 | 0.0 | 0.01 | ||||||
| 30 | 17:15 | S 8 | 7.00 | Light Rain | SCT075 OVC095 | 72.5 | 72 | 98% | 30 | 0.0 | 0.01 | ||||||
| 30 | 16:55 | S 6 | 7.00 | Light Rain | SCT050 SCT070 OVC095 | 72.9 | 72.3 | 98% | 30.02 | 0.0 | 0.01 | ||||||
| 30 | 16:35 | S 6 | 10.00 | Light Drizzle | SCT037 SCT047 BKN050 | 73.2 | 71.6 | 95% | 30.02 | 0.0 | |||||||
| 30 | 16:15 | S 6 | 10.00 | Light Drizzle | SCT037 SCT045 BKN050 | 73.6 | 71.6 | 94% | 30.01 | 0.0 | |||||||
| 30 | 15:55 | S 5 | 10.00 | Partly Cloudy | SCT085 SCT095 SCT120 | 73.8 | 71.2 | 92% | 30.02 | 0.0 | 0.01 | ||||||
| 30 | 15:35 | SW 7 | 10.00 | Light Rain | SCT065 SCT090 SCT120 | 74.3 | 70.3 | 88% | 30.02 | 0.0 | |||||||
| 30 | 15:15 | SW 9 | 10.00 | Fair | CLR | 74.8 | 70.3 | 86% | 30.01 | 0.0 | |||||||
| 30 | 14:35 | SW 9 | 10.00 | Light Drizzle | SCT047 SCT060 BKN080 | 72.9 | 70.3 | 92% | 30.02 | 0.0 | 0.01 | ||||||
| 30 | 14:15 | SW 10 | 10.00 | Thunderstorm Rain in Vicinity | SCT042 BKN065 OVC090 | 72.7 | 69.3 | 89% | 30.01 | 0.0 | 0.01 | ||||||
| 30 | 13:55 | SW 13 G 18 | 10.00 | Rain | SCT033 SCT040 OVC110 | 76.5 | 68.2 | 76% | 78 | 30.01 | 0.0 | ||||||
| 30 | 13:35 | SW 13 G 16 | 10.00 | Thunderstorm in Vicinity | OVC110 | 77 | 68.4 | 75% | 79 | 30.01 | 0.0 | ||||||
| 30 | 13:10 | SW 16 G 20 | 10.00 | Thunderstorm in Vicinity | SCT055 BKN085 OVC110 | 75.4 | 68.4 | 79% | 76 | 29.99 | 0.0 | ||||||
| 30 | 12:55 | SW 15 G 25 | 10.00 | Mostly Cloudy | SCT070 SCT080 BKN110 | 76.6 | 67.1 | 79.9 | 66.7 | 72% | 78 | 29.99 | 0.0 | 0.02 | |||
| 30 | 12:35 | S 21 | 10.00 | Fair and Breezy | CLR | 77.7 | 67.3 | 70% | 80 | 29.97 | 0.0 | ||||||
| 30 | 12:15 | S 17 G 25 | 10.00 | Fair | CLR | 78.3 | 67.5 | 70% | 80 | 29.98 | 0.0 | ||||||
| 30 | 11:55 | S 22 G 30 | 10.00 | Fair and Breezy | CLR | 77.9 | 67.3 | 70% | 80 | 29.99 | 0.0 | ||||||
| 30 | 11:35 | S 17 G 26 | 10.00 | Partly Cloudy | SCT100 | 77 | 68.5 | 75% | 79 | 29.99 | 0.0 | ||||||
| 30 | 11:15 | S 18 | 10.00 | Mostly Cloudy | BKN110 | 75.4 | 68.5 | 79% | 76 | 29.99 | 0.0 | ||||||
| 30 | 10:55 | S 16 G 20 | 10.00 | Mostly Cloudy | BKN110 | 73.9 | 68 | 82% | 29.99 | 0.0 | |||||||
| 30 | 10:35 | S 15 G 21 | 10.00 | Partly Cloudy | SCT110 | 73.6 | 67.1 | 80% | 29.99 | 0.0 | |||||||
| 30 | 10:15 | S 13 | 10.00 | Partly Cloudy | SCT110 | 73 | 67.3 | 82% | 29.99 | 0.0 | |||||||
| 30 | 09:55 | S 15 G 20 | 10.00 | Partly Cloudy | SCT110 | 72.9 | 67.8 | 84% | 29.99 | 0.0 | 0.02 | ||||||
| 30 | 09:35 | S 14 | 10.00 | Partly Cloudy | SCT110 | 72.5 | 67.8 | 85% | 29.98 | 0.0 | |||||||
| 30 | 09:15 | S 15 | 10.00 | Mostly Cloudy | BKN110 | 70 | 67.1 | 91% | 29.99 | 0.0 | |||||||
| 30 | 08:55 | S 12 | 10.00 | Mostly Cloudy | BKN110 | 69.8 | 67.3 | 92% | 30 | 0.0 | |||||||
| 30 | 08:35 | S 14 | 10.00 | Mostly Cloudy | BKN110 | 69.6 | 68.2 | 95% | 30 | 0.0 | |||||||
| 30 | 08:15 | S 12 | 10.00 | Mostly Cloudy | BKN110 | 67.5 | 67.3 | 99% | 30 | 0.0 | |||||||
| 30 | 07:55 | S 10 | 10.00 | Mostly Cloudy | BKN110 | 67.1 | 67.1 | 100% | 30.01 | 0.0 | 0.02 | ||||||
| 30 | 07:35 | S 10 | 7.00 | Light Rain | SCT065 BKN100 OVC120 | 67.1 | 67.1 | 100% | 30.01 | 0.0 | 0.02 | ||||||
| 30 | 07:15 | S 5 | 7.00 | Thunderstorm Light Rain in Vicinity | SCT080 BKN110 | 67.1 | 67.1 | 100% | 30.03 | 0.0 | 0.01 | ||||||
| 30 | 06:55 | SW 7 | 7.00 | Thunderstorm Light Rain in Vicinity | SCT075 SCT100 BKN120 | 67.1 | 67.1 | 68.4 | 64.4 | 100% | 30.02 | 0.0 | 0.03 | 0.03 | |||
| 30 | 06:35 | SW 8 | 10.00 | Thunderstorm Light Rain | SCT100 BKN120 | 67.3 | 66.7 | 98% | 30.03 | 0.0 | 0.02 | ||||||
| 30 | 06:15 | S 13 | 7.00 | Thunderstorm Rain in Vicinity | SCT049 SCT080 BKN100 | 67.6 | 66.2 | 95% | 30.01 | 0.0 | 0.01 | ||||||
| 30 | 05:55 | SW 9 | 10.00 | Light Rain | SCT049 SCT070 BKN100 | 68.2 | 65.5 | 91% | 30.01 | 0.0 | |||||||
| 30 | 05:35 | SW 7 | 10.00 | Partly Cloudy | SCT100 SCT120 | 67.5 | 64.8 | 91% | 29.99 | 0.0 | |||||||
| 30 | 05:15 | S 13 | 10.00 | Thunderstorm in Vicinity | SCT100 | 66.2 | 64.6 | 95% | 29.98 | 0.0 | |||||||
| 30 | 04:55 | S 10 | 10.00 | Light Rain | SCT120 | 65.3 | 63.9 | 95% | 29.98 | 0.0 | |||||||
| 30 | 04:35 | S 9 | 10.00 | Partly Cloudy | SCT110 | 64.9 | 63.7 | 96% | 29.97 | 0.0 | |||||||
| 30 | 04:15 | S 8 | 10.00 | Mostly Cloudy | BKN110 | 64.8 | 63.7 | 96% | 29.98 | 0.0 | |||||||
| 30 | 03:55 | S 7 | 10.00 | Mostly Cloudy | BKN110 | 64.4 | 63.7 | 98% | 29.99 | 0.0 | |||||||
| 30 | 03:35 | S 6 | 10.00 | Partly Cloudy | SCT120 | 64.9 | 63.5 | 95% | 29.99 | 0.0 | |||||||
| 30 | 03:15 | S 6 | 10.00 | Partly Cloudy | SCT120 | 66.2 | 63.3 | 91% | 29.99 | 0.0 | |||||||
| 30 | 02:55 | S 8 | 10.00 | Fair | CLR | 66.2 | 63.9 | 92% | 29.99 | 0.0 | |||||||
| 30 | 02:35 | S 7 | 10.00 | Fair | CLR | 66.4 | 63.9 | 92% | 30 | 0.0 | |||||||
| 30 | 02:15 | S 9 | 10.00 | Fair | CLR | 66.4 | 64 | 92% | 30 | 0.0 | |||||||
| 30 | 01:55 | S 8 | 10.00 | Fair | CLR | 66.4 | 64 | 92% | 30.01 | 0.0 | |||||||
| 30 | 01:35 | S 7 | 10.00 | Fair | CLR | 66.6 | 64 | 92% | 30.01 | 0.0 | |||||||
| 30 | 01:15 | S 9 | 10.00 | Fair | CLR | 66.7 | 64 | 91% | 30.01 | 0.0 | |||||||
| 30 | 00:55 | S 8 | 10.00 | Fair | CLR | 67.1 | 64 | 72.3 | 67.1 | 90% | 30.02 | 0.0 | |||||
| 30 | 00:35 | S 9 | 10.00 | Fair | CLR | 68 | 64.4 | 88% | 30.02 | 0.0 | |||||||
| 30 | 00:15 | S 13 | 10.00 | Fair | CLR | 68.4 | 64.4 | 87% | 30.02 | 0.0 | |||||||
| 29 | 23:55 | S 13 | 10.00 | Fair | CLR | 68.5 | 64.6 | 87% | 30.01 | 0.0 | |||||||
| 29 | 23:35 | S 12 | 10.00 | Fair | CLR | 68.4 | 64.8 | 88% | 30.01 | 0.0 | |||||||
| 29 | 23:15 | S 12 | 10.00 | Fair | CLR | 68.9 | 64.9 | 87% | 30.02 | 0.0 | |||||||
| 29 | 22:55 | S 13 | 10.00 | Fair | CLR | 68.9 | 65.3 | 88% | 30.02 | 0.0 | |||||||
| 29 | 22:35 | S 12 | 10.00 | Fair | CLR | 68.9 | 65.5 | 89% | 30.02 | 0.0 | |||||||
| 29 | 22:15 | S 10 | 10.00 | Fair | CLR | 68.9 | 65.5 | 89% | 30.02 | 0.0 | |||||||
| 29 | 21:55 | S 10 | 10.00 | Fair | CLR | 69.1 | 65.5 | 88% | 30.02 | 0.0 | |||||||
| 29 | 21:35 | S 13 | 10.00 | Fair | CLR | 69.4 | 65.7 | 88% | 30.02 | 0.0 | |||||||
| 29 | 21:15 | S 13 | 10.00 | Fair | CLR | 69.3 | 66.2 | 90% | 30.02 | 0.0 | |||||||
| 29 | 20:55 | S 12 | 10.00 | Fair | CLR | 69.4 | 66.2 | 90% | 30.02 | 0.0 | |||||||
| 29 | 20:35 | SE 13 | 10.00 | Fair | CLR | 69.3 | 66.7 | 92% | 30.02 | 0.0 | |||||||
| 29 | 20:15 | SE 10 | 10.00 | Fair | CLR | 69.4 | 67.1 | 92% | 30.02 | 0.0 | |||||||
| 29 | 19:55 | S 8 | 10.00 | Fair | CLR | 69.6 | 67.3 | 92% | 30.02 | 0.0 | |||||||
| 29 | 19:35 | S 8 | 10.00 | Fair | CLR | 70.3 | 67.3 | 90% | 30.03 | 0.0 | |||||||
| 29 | 19:15 | S 7 | 10.00 | Fair | CLR | 71.6 | 67.3 | 86% | 30.03 | 0.0 | |||||||
| 29 | 18:55 | S 8 | 10.00 | Partly Cloudy | SCT110 | 72.7 | 67.3 | 76.6 | 72.7 | 83% | 30.03 | 0.0 | |||||
| 29 | 18:35 | S 9 | 10.00 | Overcast | OVC120 | 73.4 | 67.1 | 81% | 30.04 | 0.0 | |||||||
| 29 | 18:15 | S 9 | 10.00 | Overcast | OVC120 | 73.8 | 67.3 | 80% | 30.04 | 0.0 | |||||||
| 29 | 17:55 | S 10 | 10.00 | Mostly Cloudy | BKN110 | 73.4 | 68 | 83% | 30.04 | 0.0 | |||||||
| 29 | 17:35 | SE 9 | 10.00 | Overcast | OVC110 | 73.4 | 67.8 | 83% | 30.04 | 0.0 | |||||||
| 29 | 17:15 | SE 9 | 10.00 | Overcast | SCT075 OVC110 | 72.9 | 67.5 | 83% | 30.04 | 0.0 | |||||||
| 29 | 16:55 | S 8 | 10.00 | Light Drizzle | SCT060 SCT075 OVC100 | 73.6 | 67.6 | 82% | 30.06 | 0.0 | |||||||
| 29 | 16:35 | S 8 | 10.00 | Partly Cloudy | SCT100 | 74.5 | 66.6 | 76% | 30.07 | 0.0 | |||||||
| 29 | 16:15 | S 10 | 10.00 | Partly Cloudy | SCT120 | 76.1 | 67.3 | 74% | 78 | 30.07 | 0.0 | ||||||
| 29 | 15:55 | S 9 | 10.00 | Mostly Cloudy | BKN120 | 76.5 | 67.6 | 74% | 78 | 30.07 | 0.0 | ||||||
| 29 | 15:35 | S 10 | 10.00 | Mostly Cloudy | BKN120 | 75.2 | 66.9 | 76% | 76 | 30.07 | 0.0 | ||||||
| 29 | 15:15 | S 12 | 10.00 | Mostly Cloudy | BKN120 | 75.7 | 66.6 | 73% | 77 | 30.08 | 0.0 | ||||||
| 29 | 14:55 | S 12 | 10.00 | Partly Cloudy | SCT120 | 75.6 | 66.4 | 73% | 77 | 30.08 | 0.0 | ||||||
| 29 | 14:35 | S 14 G 17 | 10.00 | Fair | CLR | 76.1 | 67.1 | 74% | 78 | 30.09 | 0.0 | ||||||
| 29 | 14:15 | S 9 | 10.00 | Fair | CLR | 75.6 | 66.9 | 75% | 77 | 30.11 | 0.0 | ||||||
| 29 | 13:55 | SW 12 | 10.00 | Partly Cloudy | SCT085 | 74.8 | 65.3 | 72% | 30.13 | 0.0 | |||||||
| 29 | 13:35 | S 9 | 10.00 | Fair | CLR | 75.4 | 66.6 | 74% | 77 | 30.13 | 0.0 | ||||||
| 29 | 13:15 | S 8 | 10.00 | Fair | CLR | 75.4 | 65.3 | 71% | 77 | 30.13 | 0.0 | ||||||
| Date | Time (cdt) | Wind (mph) | Vis. (mi.) | Weather | Sky Cond. | Air | Dwpt | Max. | Min. | Relative Humidity | Wind Chill (°F) | Heat Index (°F) | altimeter (in) | sea level (mb) | 1 hr | 3 hr | 6 hr |
| 6 hour | |||||||||||||||||
| Temperature (ºF) | Pressure | Precipitation (in) | |||||||||||||||